Time;durP1;ratioP1;P1;durP2;ratioP2;P2;SDS_P1;SDS_P2;PMS_P1;PMS_P2;Temp;Humidity;BMP_temperature;BMP_pressure;BME280_temperature;BME280_humidity;BME280_pressure;Samples;Min_cycle;Max_cycle;Signal;HPM_P1;HPM_P2
2022/12/30 00:01:39;;;;;;;;;;;;;;;3.92;87.80;100666.03;5072328;28;20396;-41
2022/12/30 00:04:05;;;;;;;;;;;;;;;4.17;86.59;100664.69;5072863;28;20064;-42
2022/12/30 00:06:30;;;;;;;;;;;;;;;4.17;85.50;100664.69;5072071;28;20284;-41
2022/12/30 00:08:57;;;;;;;;;;;;;;;4.28;84.92;100668.94;5072376;28;19909;-43
2022/12/30 00:11:23;;;;;;;;;;;;;;;4.13;85.37;100676.44;5072454;28;19944;-42
2022/12/30 00:33:08;;;;;;;;;;;;;;;3.77;86.78;100647.19;5072214;28;19919;-43
2022/12/30 00:35:37;;;;;;;;;;;;;;;3.80;86.23;100657.44;5071883;28;19951;-43
2022/12/30 00:38:02;;;;;;;;;;;;;;;3.64;86.77;100650.09;5071058;28;20003;-43
2022/12/30 00:40:27;;;;;;;;;;;;;;;3.91;86.19;100657.31;5071494;28;20065;-42
2022/12/30 00:43:08;;;;;;;;;;;;;;;3.80;86.73;100656.63;5071642;28;19931;-42
2022/12/30 00:45:33;;;;;;;;;;;;;;;3.88;86.85;100662.00;5071786;28;20283;-42
2022/12/30 00:47:59;;;;;;;;;;;;;;;4.03;85.44;100660.63;5071258;28;20392;-41
2022/12/30 00:56:13;;;;;;;;;;;;;;;4.08;86.10;100655.78;5071619;28;19914;-42
2022/12/30 00:58:38;;;;;;;;;;;;;;;4.26;84.76;100657.72;5071290;28;19947;-43
2022/12/30 01:01:03;;;;;;;;;;;;;;;4.17;83.54;100659.41;5071070;28;19908;-43
2022/12/30 01:03:29;;;;;;;;;;;;;;;4.15;84.18;100653.44;5071518;28;19965;-43
2022/12/30 01:05:54;;;;;;;;;;;;;;;3.92;85.36;100660.75;5071405;28;19908;-43
2022/12/30 01:08:20;;;;;;;;;;;;;;;4.01;84.57;100664.38;5071408;28;20358;-43
2022/12/30 01:10:45;;;;;;;;;;;;;;;3.90;85.17;100653.03;5064996;28;19927;-42
2022/12/30 01:13:10;;;;;;;;;;;;;;;3.86;85.65;100664.78;5060244;28;19909;-42
2022/12/30 01:15:35;;;;;;;;;;;;;;;4.01;84.99;100656.47;5051288;28;20395;-43
2022/12/30 01:18:01;;;;;;;;;;;;;;;4.00;85.07;100652.16;5051353;28;19919;-42
2022/12/30 01:20:27;;;;;;;;;;;;;;;4.33;83.62;100656.19;5051082;28;19908;-43
2022/12/30 01:22:53;;;;;;;;;;;;;;;4.12;83.93;100656.34;5051228;28;19909;-43
2022/12/30 01:25:18;;;;;;;;;;;;;;;4.18;84.04;100647.06;5051210;28;19959;-43
2022/12/30 01:27:43;;;;;;;;;;;;;;;4.04;83.92;100651.78;5051220;28;20275;-43
2022/12/30 01:30:09;;;;;;;;;;;;;;;3.87;83.66;100655.91;5068563;28;19908;-43
2022/12/30 01:32:36;;;;;;;;;;;;;;;4.19;83.37;100646.06;5071038;28;19970;-43
2022/12/30 01:35:02;;;;;;;;;;;;;;;3.88;84.09;100652.34;5070850;28;19999;-43
2022/12/30 01:37:27;;;;;;;;;;;;;;;3.78;84.27;100645.38;5071673;28;19959;-43
2022/12/30 01:39:52;;;;;;;;;;;;;;;3.63;84.47;100642.31;5071184;28;19915;-41
2022/12/30 01:42:20;;;;;;;;;;;;;;;3.76;84.24;100637.63;5070833;28;19954;-42
2022/12/30 01:44:45;;;;;;;;;;;;;;;3.75;83.04;100641.25;5070890;28;19908;-42
2022/12/30 01:47:12;;;;;;;;;;;;;;;3.48;82.74;100633.97;5070690;28;19909;-43
2022/12/30 01:49:40;;;;;;;;;;;;;;;3.49;84.46;100638.28;5069841;28;20371;-41
2022/12/30 01:52:06;;;;;;;;;;;;;;;3.52;84.66;100625.69;5069832;28;20304;-42
2022/12/30 01:54:31;;;;;;;;;;;;;;;3.22;85.14;100631.84;5070160;28;19915;-42
2022/12/30 01:56:57;;;;;;;;;;;;;;;3.21;86.18;100630.16;5069484;28;19946;-42
2022/12/30 01:59:25;;;;;;;;;;;;;;;3.14;86.13;100621.13;5070275;28;19908;-42
2022/12/30 02:01:50;;;;;;;;;;;;;;;2.94;86.46;100628.97;5070610;28;19912;-42
2022/12/30 02:04:18;;;;;;;;;;;;;;;3.12;86.46;100623.06;5070177;28;20329;-42
2022/12/30 02:07:04;;;;;;;;;;;;;;;3.39;85.77;100624.25;5070617;28;20249;-42
2022/12/30 02:09:29;;;;;;;;;;;;;;;3.07;85.91;100618.22;5059672;28;19908;-42
2022/12/30 02:11:56;;;;;;;;;;;;;;;3.30;84.64;100610.94;5070592;28;20371;-42
2022/12/30 02:14:21;;;;;;;;;;;;;;;3.10;85.55;100617.13;5070524;28;19942;-42
2022/12/30 02:16:57;;;;;;;;;;;;;;;2.93;85.09;100610.69;5070610;28;19951;-42
2022/12/30 02:19:22;;;;;;;;;;;;;;;2.94;85.88;100607.09;5070349;28;19927;-42
2022/12/30 02:22:00;;;;;;;;;;;;;;;2.93;85.84;100610.69;5070600;28;19904;-42
2022/12/30 02:24:45;;;;;;;;;;;;;;;2.84;85.71;100611.50;5070374;28;19908;-42
2022/12/30 02:27:41;;;;;;;;;;;;;;;3.09;84.72;100604.94;5069974;28;20282;-42
2022/12/30 02:30:10;;;;;;;;;;;;;;;2.53;85.02;100611.47;5070422;28;19908;-42
2022/12/30 02:32:39;;;;;;;;;;;;;;;2.60;85.56;100612.63;5070275;28;19934;-42
2022/12/30 02:35:08;;;;;;;;;;;;;;;2.46;86.46;100615.59;5070293;28;19909;-43
2022/12/30 02:37:39;;;;;;;;;;;;;;;2.27;87.57;100616.31;5070151;28;19982;-42
2022/12/30 02:40:13;;;;;;;;;;;;;;;2.32;88.78;100620.22;5070317;28;19909;-43
2022/12/30 02:45:39;;;;;;;;;;;;;;;2.89;85.40;100617.19;5070647;28;19915;-42
2022/12/30 02:48:13;;;;;;;;;;;;;;;2.82;85.71;100614.25;5070243;28;19912;-42
2022/12/30 02:53:35;;;;;;;;;;;;;;;2.65;86.86;100614.88;5032795;28;19909;-43
2022/12/30 02:56:01;;;;;;;;;;;;;;;2.48;87.36;100613.69;5069923;28;19955;-43
2022/12/30 02:58:27;;;;;;;;;;;;;;;2.70;85.95;100613.53;5070167;28;20380;-43
2022/12/30 03:03:59;;;;;;;;;;;;;;;2.75;85.91;100613.13;5074264;28;19916;-42
2022/12/30 03:06:50;;;;;;;;;;;;;;;2.83;84.84;100613.28;5073865;28;20043;-43
2022/12/30 03:09:32;;;;;;;;;;;;;;;2.77;84.77;100620.88;5073439;28;19908;-43
2022/12/30 03:11:57;;;;;;;;;;;;;;;2.93;86.41;100618.56;5073515;28;19913;-43
2022/12/30 03:14:25;;;;;;;;;;;;;;;2.98;85.08;100619.03;5073491;28;20025;-43
2022/12/30 03:16:53;;;;;;;;;;;;;;;2.82;85.11;100623.94;5073733;28;20002;-43
2022/12/30 03:19:20;;;;;;;;;;;;;;;2.70;85.03;100623.19;5073355;28;20327;-43
2022/12/30 03:21:47;;;;;;;;;;;;;;;2.72;85.25;100626.50;5073495;28;19924;-43
2022/12/30 03:27:05;;;;;;;;;;;;;;;2.50;85.94;100633.59;5073568;28;20025;-43
2022/12/30 03:29:37;;;;;;;;;;;;;;;2.59;86.44;100650.41;5072890;28;20353;-43
2022/12/30 03:32:04;;;;;;;;;;;;;;;2.61;86.49;100642.34;5073186;28;19912;-42
2022/12/30 03:34:29;;;;;;;;;;;;;;;2.76;86.69;100638.47;5073298;28;19923;-42
2022/12/30 03:37:01;;;;;;;;;;;;;;;2.69;85.38;100640.75;5073222;28;19916;-42
2022/12/30 03:39:37;;;;;;;;;;;;;;;2.66;85.39;100642.81;5072829;28;20047;-42
2022/12/30 03:42:03;;;;;;;;;;;;;;;2.52;85.33;100643.97;5072922;28;19908;-42
2022/12/30 03:44:28;;;;;;;;;;;;;;;2.35;84.88;100648.03;5072881;28;20037;-43
2022/12/30 03:46:54;;;;;;;;;;;;;;;2.25;86.41;100645.34;5072672;28;19909;-42
2022/12/30 03:49:19;;;;;;;;;;;;;;;2.36;87.66;100647.03;5072724;28;19999;-43
2022/12/30 03:51:45;;;;;;;;;;;;;;;2.49;86.24;100646.84;5072838;28;20284;-43
2022/12/30 03:54:10;;;;;;;;;;;;;;;2.50;84.68;100644.09;5072480;28;19953;-43
2022/12/30 03:56:35;;;;;;;;;;;;;;;2.36;85.97;100639.16;5072405;28;20352;-42
2022/12/30 03:59:01;;;;;;;;;;;;;;;2.53;85.41;100650.88;5072677;28;19908;-42
2022/12/30 04:01:26;;;;;;;;;;;;;;;2.61;85.01;100658.13;5072495;28;20416;-43
2022/12/30 04:03:51;;;;;;;;;;;;;;;2.52;84.28;100655.31;5072416;28;19915;-42
2022/12/30 04:06:16;;;;;;;;;;;;;;;2.18;85.70;100659.09;5072590;28;19974;-43
2022/12/30 04:08:42;;;;;;;;;;;;;;;2.41;86.17;100654.56;5073032;28;19928;-43
2022/12/30 04:11:07;;;;;;;;;;;;;;;1.87;87.36;100656.38;5072287;28;20277;-42
2022/12/30 04:13:32;;;;;;;;;;;;;;;2.20;85.68;100660.63;5071492;28;19908;-43
2022/12/30 04:15:58;;;;;;;;;;;;;;;2.15;84.54;100654.91;5072459;28;19912;-43
2022/12/30 04:18:23;;;;;;;;;;;;;;;2.03;85.88;100661.19;5071923;28;19956;-43
2022/12/30 04:20:50;;;;;;;;;;;;;;;2.06;86.81;100659.16;5072053;28;19998;-44
2022/12/30 04:23:15;;;;;;;;;;;;;;;2.16;85.29;100656.59;5072050;28;19909;-43
2022/12/30 04:25:41;;;;;;;;;;;;;;;2.22;86.52;100658.72;5071555;28;19909;-43
2022/12/30 04:28:06;;;;;;;;;;;;;;;2.32;86.01;100659.63;5072154;28;19919;-42
2022/12/30 04:30:32;;;;;;;;;;;;;;;2.33;86.45;100656.03;5071792;28;19957;-43
2022/12/30 04:32:57;;;;;;;;;;;;;;;2.43;85.40;100650.84;5070419;28;20042;-50
2022/12/30 04:35:22;;;;;;;;;;;;;;;2.31;85.18;100644.00;5071940;28;19909;-43
2022/12/30 04:37:48;;;;;;;;;;;;;;;2.40;85.27;100652.88;5071940;28;20265;-44
2022/12/30 04:40:13;;;;;;;;;;;;;;;2.33;85.44;100658.66;5071863;28;19916;-44
2022/12/30 04:42:39;;;;;;;;;;;;;;;2.45;84.84;100650.72;5071846;28;20070;-43
2022/12/30 04:45:04;;;;;;;;;;;;;;;2.32;85.35;100650.91;5071962;28;19973;-43
2022/12/30 04:47:30;;;;;;;;;;;;;;;2.14;85.93;100651.47;5071704;28;20384;-43
2022/12/30 04:49:55;;;;;;;;;;;;;;;2.07;86.72;100658.19;5071523;28;19916;-43
2022/12/30 04:52:20;;;;;;;;;;;;;;;1.94;84.82;100661.00;5071329;28;19923;-43
2022/12/30 04:54:45;;;;;;;;;;;;;;;1.92;84.53;100659.44;5071483;28;20225;-44
2022/12/30 04:57:11;;;;;;;;;;;;;;;1.81;83.38;100655.06;5071478;28;19908;-42
2022/12/30 04:59:36;;;;;;;;;;;;;;;1.44;85.24;100671.13;5071504;28;20402;-43
2022/12/30 05:02:01;;;;;;;;;;;;;;;1.36;86.70;100663.03;5071574;28;19908;-44
2022/12/30 05:04:26;;;;;;;;;;;;;;;1.25;87.59;100663.88;5071589;28;20401;-43
2022/12/30 05:06:52;;;;;;;;;;;;;;;1.08;88.13;100665.19;5071161;28;20303;-43
2022/12/30 05:09:17;;;;;;;;;;;;;;;1.19;87.37;100660.91;5070499;28;19908;-43
2022/12/30 05:11:42;;;;;;;;;;;;;;;1.00;87.63;100678.06;5071159;28;19920;-43
2022/12/30 05:14:08;;;;;;;;;;;;;;;1.07;88.74;100674.03;5071291;28;19908;-43
2022/12/30 05:16:33;;;;;;;;;;;;;;;0.96;89.43;100682.72;5071294;28;19919;-43
2022/12/30 05:18:58;;;;;;;;;;;;;;;0.98;89.80;100675.56;5071083;28;19982;-43
2022/12/30 05:21:24;;;;;;;;;;;;;;;1.14;89.36;100680.47;5071025;28;19908;-43
2022/12/30 05:26:34;;;;;;;;;;;;;;;3.65;100.00;100683.31;5071041;28;19920;-43
2022/12/30 05:28:59;;;;;;;;;;;;;;;4.88;100.00;100695.09;5070327;28;19919;-43
2022/12/30 05:31:24;;;;;;;;;;;;;;;5.80;87.72;100683.66;5070829;28;20418;-44
2022/12/30 05:33:50;;;;;;;;;;;;;;;5.80;79.88;100691.59;5070970;28;19951;-44
2022/12/30 05:36:15;;;;;;;;;;;;;;;5.36;78.13;100687.97;5058624;28;20411;-44
2022/12/30 05:38:40;;;;;;;;;;;;;;;5.68;75.94;100687.50;5051000;28;20538;-43
2022/12/30 05:41:06;;;;;;;;;;;;;;;5.46;71.66;100691.38;5053965;28;19908;-42
2022/12/30 05:43:32;;;;;;;;;;;;;;;4.43;74.59;100688.63;5070242;28;19936;-43
2022/12/30 05:45:57;;;;;;;;;;;;;;;4.21;76.38;100683.69;5069471;28;19908;-43
2022/12/30 05:48:22;;;;;;;;;;;;;;;4.67;75.56;100690.81;5070321;28;19969;-43
2022/12/30 05:50:48;;;;;;;;;;;;;;;4.84;72.44;100696.34;5070319;28;19908;-42
2022/12/30 05:53:13;;;;;;;;;;;;;;;3.96;75.11;100691.16;5069757;28;19924;-43
2022/12/30 05:55:38;;;;;;;;;;;;;;;3.90;77.27;100692.53;5070100;28;19909;-43
2022/12/30 05:58:04;;;;;;;;;;;;;;;3.67;77.24;100691.91;5068483;28;20310;-44
2022/12/30 06:00:29;;;;;;;;;;;;;;;4.23;75.22;100695.72;5069398;28;19908;-45
2022/12/30 06:02:55;;;;;;;;;;;;;;;4.24;74.66;100696.56;5070418;28;19909;-44
2022/12/30 06:05:20;;;;;;;;;;;;;;;4.11;75.19;100689.78;5070381;28;19993;-42
2022/12/30 06:07:45;;;;;;;;;;;;;;;3.53;78.75;100690.50;5070176;28;19912;-43
2022/12/30 06:10:11;;;;;;;;;;;;;;;3.86;78.93;100691.13;5070259;28;19917;-43
2022/12/30 06:12:36;;;;;;;;;;;;;;;5.03;77.26;100701.56;5069957;28;19985;-42
2022/12/30 06:15:01;;;;;;;;;;;;;;;4.70;75.28;100701.09;5070288;28;19908;-43
2022/12/30 06:17:26;;;;;;;;;;;;;;;4.86;74.77;100710.22;5070318;28;19994;-42
2022/12/30 06:19:52;;;;;;;;;;;;;;;4.36;76.33;100707.78;5070172;28;19986;-43
2022/12/30 06:22:17;;;;;;;;;;;;;;;4.43;77.26;100703.63;5070433;28;20054;-43
2022/12/30 06:24:42;;;;;;;;;;;;;;;4.85;74.45;100703.28;5069652;28;19912;-43
2022/12/30 06:27:07;;;;;;;;;;;;;;;4.36;74.63;100706.00;5069744;28;19908;-43
2022/12/30 06:29:33;;;;;;;;;;;;;;;3.95;77.30;100709.72;5070581;28;19909;-42
2022/12/30 06:31:58;;;;;;;;;;;;;;;3.67;77.75;100709.50;5070039;28;20355;-43
2022/12/30 06:34:23;;;;;;;;;;;;;;;4.28;79.18;100704.06;5071106;28;19909;-44
2022/12/30 06:36:49;;;;;;;;;;;;;;;5.07;76.25;100718.75;5071538;28;19909;-43
2022/12/30 06:39:14;;;;;;;;;;;;;;;4.77;75.48;100714.53;5073749;28;19909;-43
2022/12/30 06:41:39;;;;;;;;;;;;;;;4.56;76.66;100721.78;5073794;28;19991;-43
2022/12/30 06:44:04;;;;;;;;;;;;;;;4.19;77.27;100725.97;5073535;28;19919;-42
2022/12/30 06:46:30;;;;;;;;;;;;;;;5.03;76.38;100742.94;5073358;28;20476;-42
2022/12/30 06:48:55;;;;;;;;;;;;;;;5.90;74.26;100736.44;5073459;28;19916;-44
2022/12/30 06:51:20;;;;;;;;;;;;;;;4.89;75.03;100737.16;5073332;28;19927;-43
2022/12/30 06:53:46;;;;;;;;;;;;;;;4.90;74.93;100737.97;5073664;28;19954;-44
2022/12/30 06:56:11;;;;;;;;;;;;;;;4.76;75.27;100744.53;5073855;28;19908;-42
2022/12/30 06:58:37;;;;;;;;;;;;;;;5.53;75.79;100750.53;5073768;28;19915;-43
2022/12/30 07:01:02;;;;;;;;;;;;;;;6.33;72.91;100742.03;5073738;28;19909;-44
2022/12/30 07:03:27;;;;;;;;;;;;;;;5.85;72.13;100744.00;5073204;28;20303;-43
2022/12/30 07:05:53;;;;;;;;;;;;;;;5.95;73.17;100747.41;5073970;28;19908;-44
2022/12/30 07:08:18;;;;;;;;;;;;;;;5.93;73.52;100745.88;5073183;28;20388;-43
2022/12/30 07:10:43;;;;;;;;;;;;;;;7.16;71.10;100755.72;5073361;28;19908;-43
2022/12/30 07:13:11;;;;;;;;;;;;;;;6.76;70.54;100753.59;5073090;28;20435;-45
2022/12/30 07:15:36;;;;;;;;;;;;;;;6.62;71.08;100745.22;5073140;28;20348;-44
2022/12/30 07:18:01;;;;;;;;;;;;;;;6.54;71.78;100744.34;5072831;28;19916;-42
2022/12/30 07:20:26;;;;;;;;;;;;;;;6.87;70.82;100753.34;5073552;28;20004;-44
2022/12/30 07:22:52;;;;;;;;;;;;;;;7.27;70.21;100757.25;5073288;28;20050;-44
2022/12/30 07:25:17;;;;;;;;;;;;;;;7.33;67.04;100763.72;5073588;28;20410;-45
2022/12/30 07:27:42;;;;;;;;;;;;;;;7.58;65.64;100759.41;5073000;28;19908;-44
2022/12/30 07:30:08;;;;;;;;;;;;;;;8.60;61.79;100755.69;5073006;28;19912;-44
2022/12/30 07:32:33;;;;;;;;;;;;;;;9.34;60.55;100765.34;5072836;28;19913;-44
2022/12/30 07:34:58;;;;;;;;;;;;;;;9.82;61.24;100762.69;5072908;28;19908;-43
2022/12/30 07:37:24;;;;;;;;;;;;;;;10.22;58.29;100768.78;5072551;28;19908;-43
2022/12/30 07:39:49;;;;;;;;;;;;;;;10.75;55.10;100767.09;5072655;28;19915;-47
2022/12/30 07:42:14;;;;;;;;;;;;;;;11.20;54.29;100770.66;5073442;28;20316;-43
2022/12/30 07:44:40;;;;;;;;;;;;;;;11.59;53.33;100766.06;5072624;28;20442;-43
2022/12/30 07:47:05;;;;;;;;;;;;;;;11.73;53.30;100763.41;5072003;28;19998;-44
2022/12/30 07:49:30;;;;;;;;;;;;;;;12.00;53.54;100765.59;5070946;28;19935;-46
2022/12/30 07:51:55;;;;;;;;;;;;;;;12.43;52.57;100763.78;5072135;28;19999;-45
2022/12/30 07:54:21;;;;;;;;;;;;;;;12.74;51.29;100762.63;5072175;28;19920;-44
2022/12/30 07:56:46;;;;;;;;;;;;;;;13.14;49.99;100764.78;5072552;28;19974;-46
2022/12/30 07:59:14;;;;;;;;;;;;;;;13.33;50.73;100763.25;5072590;28;19912;-45
2022/12/30 08:01:40;;;;;;;;;;;;;;;13.64;48.69;100771.66;5072143;28;19911;-44
2022/12/30 08:04:05;;;;;;;;;;;;;;;13.85;48.33;100769.91;5072262;28;19908;-44
2022/12/30 08:06:31;;;;;;;;;;;;;;;14.01;48.00;100776.75;5071966;28;19923;-44
2022/12/30 08:08:56;;;;;;;;;;;;;;;14.36;47.23;100774.78;5072078;28;19908;-45
2022/12/30 08:11:21;;;;;;;;;;;;;;;14.59;48.31;100770.94;5071829;28;19985;-44
2022/12/30 08:13:47;;;;;;;;;;;;;;;14.44;46.79;100774.59;5072330;28;19919;-46
2022/12/30 08:16:14;;;;;;;;;;;;;;;14.55;46.97;100775.03;5071984;28;19909;-44
2022/12/30 08:18:39;;;;;;;;;;;;;;;14.85;46.17;100768.25;5071623;28;19959;-42
2022/12/30 08:21:06;;;;;;;;;;;;;;;14.81;46.08;100775.06;5071758;28;19944;-45
2022/12/30 08:23:31;;;;;;;;;;;;;;;14.87;45.77;100778.78;5071582;28;20399;-46
2022/12/30 08:26:02;;;;;;;;;;;;;;;15.15;46.64;100764.31;5071940;28;19908;-44
2022/12/30 08:28:27;;;;;;;;;;;;;;;15.44;45.41;100763.03;5072180;28;19908;-45
2022/12/30 08:30:53;;;;;;;;;;;;;;;15.48;46.17;100774.13;5071507;28;19915;-43
2022/12/30 08:33:18;;;;;;;;;;;;;;;15.59;44.59;100763.59;5071349;28;19909;-44
2022/12/30 08:35:43;;;;;;;;;;;;;;;15.57;45.68;100768.34;5071514;28;19987;-43
2022/12/30 08:38:09;;;;;;;;;;;;;;;15.57;44.75;100756.78;5071465;28;20325;-43
2022/12/30 08:40:34;;;;;;;;;;;;;;;15.70;45.06;100767.47;5071478;28;19916;-44
2022/12/30 08:43:00;;;;;;;;;;;;;;;15.91;45.30;100762.88;5071364;28;19965;-44
2022/12/30 08:45:25;;;;;;;;;;;;;;;16.07;44.70;100759.69;5071166;28;19914;-45
2022/12/30 08:47:51;;;;;;;;;;;;;;;16.29;43.47;100748.63;5071540;28;20012;-44
2022/12/30 08:50:16;;;;;;;;;;;;;;;16.14;44.12;100749.72;5071052;28;20344;-45
2022/12/30 08:52:41;;;;;;;;;;;;;;;15.89;45.27;100738.91;5070334;28;19923;-44
2022/12/30 08:55:07;;;;;;;;;;;;;;;16.18;46.65;100736.69;5071065;28;20368;-44
2022/12/30 08:57:33;;;;;;;;;;;;;;;15.99;45.05;100739.31;5070742;28;19915;-44
2022/12/30 08:59:58;;;;;;;;;;;;;;;16.54;44.12;100730.66;5070603;28;19908;-43
2022/12/30 09:02:23;;;;;;;;;;;;;;;16.31;43.70;100730.41;5070222;28;20346;-43
2022/12/30 09:04:49;;;;;;;;;;;;;;;16.22;43.23;100730.69;5070566;28;19908;-43
2022/12/30 09:07:14;;;;;;;;;;;;;;;16.12;43.50;100735.69;5071127;28;19913;-43
2022/12/30 09:09:39;;;;;;;;;;;;;;;15.69;44.96;100730.09;5070714;28;20383;-43
2022/12/30 09:12:04;;;;;;;;;;;;;;;15.07;45.95;100737.72;5070462;28;19916;-43
2022/12/30 09:14:30;;;;;;;;;;;;;;;14.76;46.68;100729.31;5070730;28;20347;-43
2022/12/30 09:16:55;;;;;;;;;;;;;;;14.79;46.48;100720.88;5071311;28;19956;-43
2022/12/30 09:19:20;;;;;;;;;;;;;;;14.70;48.16;100719.44;5070586;28;19925;-43
2022/12/30 09:21:46;;;;;;;;;;;;;;;14.21;49.09;100718.75;5070550;28;19916;-43
2022/12/30 09:24:11;;;;;;;;;;;;;;;14.16;49.12;100715.03;5070970;28;19916;-43
2022/12/30 09:26:36;;;;;;;;;;;;;;;14.39;48.00;100717.31;5070400;28;19908;-43
2022/12/30 09:29:02;;;;;;;;;;;;;;;14.97;48.85;100709.50;5070669;28;19932;-43
2022/12/30 09:31:28;;;;;;;;;;;;;;;14.98;46.69;100711.16;5070396;28;20434;-43
2022/12/30 09:33:54;;;;;;;;;;;;;;;15.08;46.52;100701.84;5070658;28;19916;-42
2022/12/30 09:36:19;;;;;;;;;;;;;;;15.19;47.29;100699.34;5070521;28;19908;-44
2022/12/30 09:38:44;;;;;;;;;;;;;;;15.62;47.30;100700.63;5070472;28;20305;-43
2022/12/30 09:44:42;;;;;;;;;;;;;;;14.83;47.42;100691.78;5027938;28;20436;-43
2022/12/30 09:47:22;;;;;;;;;;;;;;;15.36;46.84;100683.59;5064313;28;19908;-44
2022/12/30 09:49:54;;;;;;;;;;;;;;;15.69;45.73;100684.50;5070423;28;19987;-43
2022/12/30 09:52:25;;;;;;;;;;;;;;;15.62;45.83;100679.16;5070501;28;20376;-45
2022/12/30 09:55:00;;;;;;;;;;;;;;;15.14;47.27;100676.88;5071043;28;19918;-45
2022/12/30 09:57:32;;;;;;;;;;;;;;;15.73;45.73;100666.94;5070563;28;20344;-43
2022/12/30 10:00:07;;;;;;;;;;;;;;;15.82;48.25;100663.81;5069858;28;19966;-43
2022/12/30 10:02:43;;;;;;;;;;;;;;;16.22;46.80;100658.19;5069849;28;19909;-43
2022/12/30 10:05:12;;;;;;;;;;;;;;;16.68;44.71;100656.13;5070600;28;19908;-44
2022/12/30 10:07:37;;;;;;;;;;;;;;;16.59;44.50;100655.59;5070152;28;19909;-44
2022/12/30 10:10:29;;;;;;;;;;;;;;;16.55;43.79;100648.19;5070359;28;19926;-44
2022/12/30 10:13:04;;;;;;;;;;;;;;;16.56;45.60;100655.19;5070390;28;20419;-43
2022/12/30 10:15:36;;;;;;;;;;;;;;;16.25;44.12;100640.81;5074397;28;20337;-43
2022/12/30 10:18:20;;;;;;;;;;;;;;;16.32;46.52;100636.19;5074334;28;19918;-44
2022/12/30 10:20:51;;;;;;;;;;;;;;;16.43;43.97;100632.00;5074002;28;19916;-43
2022/12/30 10:23:45;;;;;;;;;;;;;;;16.86;44.48;100625.78;5074243;28;20316;-45
2022/12/30 10:26:11;;;;;;;;;;;;;;;16.76;42.98;100618.22;5060149;28;19909;-43
2022/12/30 10:28:37;;;;;;;;;;;;;;;16.76;43.17;100623.59;5073883;28;19914;-43
2022/12/30 10:31:07;;;;;;;;;;;;;;;15.71;45.90;100629.59;5073785;28;19928;-43
2022/12/30 10:33:33;;;;;;;;;;;;;;;16.22;44.14;100619.75;5073257;28;19909;-43
2022/12/30 10:36:02;;;;;;;;;;;;;;;16.20;46.73;100616.47;5074768;28;19915;-44
2022/12/30 10:38:28;;;;;;;;;;;;;;;16.27;45.01;100619.09;5074350;28;20303;-43
2022/12/30 10:41:09;;;;;;;;;;;;;;;16.10;45.53;100610.78;5073659;28;19936;-43
2022/12/30 10:43:43;;;;;;;;;;;;;;;15.96;44.36;100613.56;5073651;28;20376;-44
2022/12/30 10:46:19;;;;;;;;;;;;;;;16.16;45.30;100602.69;5073926;28;20015;-43
2022/12/30 10:48:51;;;;;;;;;;;;;;;16.09;45.95;100593.00;5074116;28;19923;-43
2022/12/30 10:51:17;;;;;;;;;;;;;;;16.31;44.29;100588.88;5074127;28;20000;-43
2022/12/30 10:53:46;;;;;;;;;;;;;;;15.55;45.05;100587.97;5074297;28;19935;-42
2022/12/30 10:56:15;;;;;;;;;;;;;;;15.51;45.88;100592.13;5073893;28;20015;-45
2022/12/30 10:58:42;;;;;;;;;;;;;;;15.57;45.08;100582.41;5073768;28;19908;-43
2022/12/30 11:01:13;;;;;;;;;;;;;;;15.63;45.30;100585.06;5073526;28;19951;-43
2022/12/30 11:03:42;;;;;;;;;;;;;;;15.66;47.86;100578.44;5073563;28;19908;-46
2022/12/30 11:06:28;;;;;;;;;;;;;;;15.28;47.88;100578.44;5073152;28;19966;-44
2022/12/30 11:09:13;;;;;;;;;;;;;;;15.09;47.75;100574.81;5073233;28;19909;-44
2022/12/30 11:14:44;;;;;;;;;;;;;;;14.15;49.50;100567.00;5073205;28;19919;-44
2022/12/30 11:17:16;;;;;;;;;;;;;;;14.94;47.41;100567.88;5073389;28;20137;-44
2022/12/30 11:19:48;;;;;;;;;;;;;;;15.14;46.61;100557.06;5073147;28;19943;-43
2022/12/30 11:22:13;;;;;;;;;;;;;;;14.95;48.30;100557.97;5072911;28;19908;-43
2022/12/30 11:24:43;;;;;;;;;;;;;;;15.33;48.82;100563.38;5072792;28;19908;-43
2022/12/30 11:27:09;;;;;;;;;;;;;;;15.97;45.06;100558.00;5073317;28;19908;-43
2022/12/30 11:29:34;;;;;;;;;;;;;;;16.07;45.88;100549.44;5073108;28;19908;-42
2022/12/30 11:32:08;;;;;;;;;;;;;;;15.84;46.56;100545.53;5072731;28;19930;-43
2022/12/30 11:34:34;;;;;;;;;;;;;;;16.04;45.48;100550.72;5072877;28;20041;-44
2022/12/30 11:37:19;;;;;;;;;;;;;;;15.40;47.22;100548.06;5072507;28;19958;-43
2022/12/30 11:39:44;;;;;;;;;;;;;;;15.81;45.06;100546.78;5072784;28;19944;-43
2022/12/30 11:42:27;;;;;;;;;;;;;;;16.05;44.90;100546.16;5072979;28;19954;-43
2022/12/30 11:45:11;;;;;;;;;;;;;;;15.72;45.55;100541.84;5072655;28;19920;-43
2022/12/30 11:47:36;;;;;;;;;;;;;;;15.44;47.01;100541.22;5073032;28;19908;-43
2022/12/30 11:50:01;;;;;;;;;;;;;;;15.19;46.84;100538.50;5072358;28;19912;-43
2022/12/30 11:52:28;;;;;;;;;;;;;;;15.74;45.93;100534.44;5072327;28;19991;-44
2022/12/30 11:54:55;;;;;;;;;;;;;;;16.15;45.18;100538.44;5072782;28;19912;-43
2022/12/30 11:57:29;;;;;;;;;;;;;;;15.68;45.81;100529.94;5072180;28;20372;-43
2022/12/30 11:59:57;;;;;;;;;;;;;;;15.17;48.25;100526.31;5072298;28;19915;-44
2022/12/30 12:02:27;;;;;;;;;;;;;;;15.28;47.73;100527.50;5071938;28;19917;-44
2022/12/30 12:04:52;;;;;;;;;;;;;;;15.75;48.05;100523.50;5072036;28;19947;-44
2022/12/30 12:07:19;;;;;;;;;;;;;;;15.98;45.97;100530.94;5072201;28;19948;-44
2022/12/30 12:09:50;;;;;;;;;;;;;;;16.05;45.96;100524.69;5072033;28;19926;-45
2022/12/30 12:12:17;;;;;;;;;;;;;;;15.68;46.43;100522.69;5071725;28;19919;-44
2022/12/30 12:14:45;;;;;;;;;;;;;;;15.73;46.02;100522.06;5071897;28;19912;-44
2022/12/30 12:17:13;;;;;;;;;;;;;;;15.58;47.00;100514.31;5072035;28;20285;-43
2022/12/30 12:20:03;;;;;;;;;;;;;;;15.55;47.00;100520.91;5071763;28;19981;-44
2022/12/30 12:22:37;;;;;;;;;;;;;;;15.88;47.00;100508.31;5071814;28;19908;-44
2022/12/30 12:25:06;;;;;;;;;;;;;;;16.20;45.18;100509.91;5071583;28;20360;-44
2022/12/30 12:27:32;;;;;;;;;;;;;;;15.48;46.81;100496.03;5071734;28;20335;-43
2022/12/30 12:29:57;;;;;;;;;;;;;;;15.61;46.65;100506.66;5071615;28;20002;-44
2022/12/30 12:32:49;;;;;;;;;;;;;;;15.87;45.50;100501.31;5071458;28;19912;-44
2022/12/30 12:35:14;;;;;;;;;;;;;;;15.79;44.92;100500.53;5047423;28;19924;-43
2022/12/30 12:37:54;;;;;;;;;;;;;;;15.51;46.07;100506.31;5071875;28;20061;-43
2022/12/30 12:40:38;;;;;;;;;;;;;;;15.77;45.62;100505.31;5072040;28;19908;-43
2022/12/30 12:43:21;;;;;;;;;;;;;;;16.25;43.67;100503.84;5071417;28;20435;-44
2022/12/30 12:45:58;;;;;;;;;;;;;;;15.87;46.68;100501.31;5070322;28;19908;-44
2022/12/30 12:48:32;;;;;;;;;;;;;;;15.64;45.83;100494.66;5071223;28;20364;-43
2022/12/30 12:51:09;;;;;;;;;;;;;;;15.40;46.53;100496.25;5071466;28;19908;-43
2022/12/30 12:53:52;;;;;;;;;;;;;;;15.55;45.07;100494.09;5071388;28;19908;-43
2022/12/30 12:56:26;;;;;;;;;;;;;;;15.83;45.48;100496.38;5071184;28;19909;-42
2022/12/30 12:59:01;;;;;;;;;;;;;;;15.82;45.61;100494.75;5071284;28;19912;-43
2022/12/30 13:01:34;;;;;;;;;;;;;;;15.75;45.36;100502.03;5071242;28;19909;-44
2022/12/30 13:04:03;;;;;;;;;;;;;;;15.79;45.77;100503.22;5071422;28;19908;-43
2022/12/30 13:06:32;;;;;;;;;;;;;;;16.06;45.18;100504.88;5071071;28;19995;-44
2022/12/30 13:08:58;;;;;;;;;;;;;;;16.35;45.54;100509.50;5071041;28;19958;-45
2022/12/30 13:11:37;;;;;;;;;;;;;;;16.22;44.94;100506.97;5070772;28;19962;-43
2022/12/30 13:14:02;;;;;;;;;;;;;;;15.86;45.88;100505.88;5071129;28;19916;-43
2022/12/30 13:16:32;;;;;;;;;;;;;;;15.57;48.09;100504.59;5071178;28;19920;-44
2022/12/30 13:18:58;;;;;;;;;;;;;;;16.01;46.00;100497.47;5070710;28;20015;-45
2022/12/30 13:21:25;;;;;;;;;;;;;;;15.97;46.76;100498.94;5070632;28;19988;-43
2022/12/30 13:23:52;;;;;;;;;;;;;;;15.84;46.05;100513.31;5071240;28;19908;-45
2022/12/30 13:26:20;;;;;;;;;;;;;;;15.60;47.58;100507.69;5070613;28;19947;-43
2022/12/30 13:28:49;;;;;;;;;;;;;;;15.60;47.45;100512.22;5070633;28;19990;-44
2022/12/30 13:31:14;;;;;;;;;;;;;;;15.83;47.44;100515.16;5071133;28;19917;-44
2022/12/30 13:33:58;;;;;;;;;;;;;;;15.80;46.75;100517.47;5071029;28;19958;-44